sensor_id;sensor_type;location;lat;lon;timestamp;pressure;altitude;pressure_sealevel;temperature;humidity
69855;BME280;57146;48.140;16.304;2023-05-29T00:00:11;99416.84;;;13.63;71.08
69855;BME280;57146;48.140;16.304;2023-05-29T00:02:39;99416.69;;;13.51;71.61
69855;BME280;57146;48.140;16.304;2023-05-29T00:05:06;99414.53;;;13.44;71.67
69855;BME280;57146;48.140;16.304;2023-05-29T00:07:33;99420.28;;;13.37;72.48
69855;BME280;57146;48.140;16.304;2023-05-29T00:10:03;99424.22;;;13.31;72.13
69855;BME280;57146;48.140;16.304;2023-05-29T00:12:30;99423.88;;;13.33;72.01
69855;BME280;57146;48.140;16.304;2023-05-29T00:14:57;99429.31;;;13.36;71.42
69855;BME280;57146;48.140;16.304;2023-05-29T00:17:24;99432.28;;;13.35;71.40
69855;BME280;57146;48.140;16.304;2023-05-29T00:19:52;99427.78;;;13.35;71.94
69855;BME280;57146;48.140;16.304;2023-05-29T00:22:19;99419.69;;;13.32;71.41
69855;BME280;57146;48.140;16.304;2023-05-29T00:24:47;99420.00;;;13.30;71.68
69855;BME280;57146;48.140;16.304;2023-05-29T00:27:16;99425.59;;;13.29;72.13
69855;BME280;57146;48.140;16.304;2023-05-29T00:29:46;99419.22;;;13.21;71.82
69855;BME280;57146;48.140;16.304;2023-05-29T00:32:13;99421.56;;;13.14;71.86
69855;BME280;57146;48.140;16.304;2023-05-29T00:34:40;99418.59;;;13.15;72.52
69855;BME280;57146;48.140;16.304;2023-05-29T00:37:08;99421.25;;;13.07;72.39
69855;BME280;57146;48.140;16.304;2023-05-29T00:39:35;99419.56;;;13.02;72.42
69855;BME280;57146;48.140;16.304;2023-05-29T00:42:05;99412.88;;;12.96;72.72
69855;BME280;57146;48.140;16.304;2023-05-29T00:44:31;99408.34;;;12.97;72.85
69855;BME280;57146;48.140;16.304;2023-05-29T00:46:59;99418.63;;;12.89;72.33
69855;BME280;57146;48.140;16.304;2023-05-29T00:49:26;99412.69;;;12.84;73.03
69855;BME280;57146;48.140;16.304;2023-05-29T00:51:55;99409.59;;;12.82;73.39
69855;BME280;57146;48.140;16.304;2023-05-29T00:54:29;99403.22;;;12.83;72.81
69855;BME280;57146;48.140;16.304;2023-05-29T00:56:58;99407.56;;;12.79;72.93
69855;BME280;57146;48.140;16.304;2023-05-29T00:59:26;99412.38;;;12.77;72.72
69855;BME280;57146;48.140;16.304;2023-05-29T01:01:57;99412.22;;;12.73;72.70
69855;BME280;57146;48.140;16.304;2023-05-29T01:04:26;99408.34;;;12.70;73.22
69855;BME280;57146;48.140;16.304;2023-05-29T01:06:53;99418.56;;;12.55;73.28
69855;BME280;57146;48.140;16.304;2023-05-29T01:09:20;99402.28;;;12.61;73.42
69855;BME280;57146;48.140;16.304;2023-05-29T01:29:10;99415.44;;;12.35;73.81
69855;BME280;57146;48.140;16.304;2023-05-29T01:31:42;99421.34;;;12.32;74.03
69855;BME280;57146;48.140;16.304;2023-05-29T01:34:11;99414.97;;;12.33;74.35
69855;BME280;57146;48.140;16.304;2023-05-29T01:36:42;99409.84;;;12.28;73.99
69855;BME280;57146;48.140;16.304;2023-05-29T01:39:09;99406.44;;;12.28;74.10
69855;BME280;57146;48.140;16.304;2023-05-29T01:41:37;99397.41;;;12.29;74.26
69855;BME280;57146;48.140;16.304;2023-05-29T01:44:07;99407.50;;;12.27;74.63
69855;BME280;57146;48.140;16.304;2023-05-29T01:46:37;99399.56;;;12.27;74.13
69855;BME280;57146;48.140;16.304;2023-05-29T01:49:06;99406.72;;;12.26;74.61
69855;BME280;57146;48.140;16.304;2023-05-29T01:51:34;99400.19;;;12.23;75.08
69855;BME280;57146;48.140;16.304;2023-05-29T01:54:01;99409.47;;;12.12;75.13
69855;BME280;57146;48.140;16.304;2023-05-29T01:56:33;99399.53;;;12.09;76.01
69855;BME280;57146;48.140;16.304;2023-05-29T01:59:02;99404.94;;;12.04;75.31
69855;BME280;57146;48.140;16.304;2023-05-29T02:01:33;99403.06;;;11.96;75.57
69855;BME280;57146;48.140;16.304;2023-05-29T02:04:01;99405.38;;;11.97;75.89
69855;BME280;57146;48.140;16.304;2023-05-29T02:06:28;99412.84;;;11.95;75.30
69855;BME280;57146;48.140;16.304;2023-05-29T02:08:56;99401.81;;;11.93;75.69
69855;BME280;57146;48.140;16.304;2023-05-29T02:11:25;99399.78;;;11.90;76.19
69855;BME280;57146;48.140;16.304;2023-05-29T02:13:53;99404.59;;;11.88;76.48
69855;BME280;57146;48.140;16.304;2023-05-29T02:16:21;99394.44;;;11.82;76.03
69855;BME280;57146;48.140;16.304;2023-05-29T02:18:49;99404.50;;;11.80;76.14
69855;BME280;57146;48.140;16.304;2023-05-29T02:21:17;99407.75;;;11.77;76.48
69855;BME280;57146;48.140;16.304;2023-05-29T02:23:44;99401.84;;;11.71;76.30
69855;BME280;57146;48.140;16.304;2023-05-29T02:26:12;99401.19;;;11.65;75.98
69855;BME280;57146;48.140;16.304;2023-05-29T02:28:39;99401.97;;;11.66;75.99
69855;BME280;57146;48.140;16.304;2023-05-29T02:31:06;99403.06;;;11.65;75.91
69855;BME280;57146;48.140;16.304;2023-05-29T02:33:35;99391.41;;;11.66;76.29
69855;BME280;57146;48.140;16.304;2023-05-29T02:36:02;99387.38;;;11.60;76.24
69855;BME280;57146;48.140;16.304;2023-05-29T02:38:30;99394.03;;;11.57;76.47
69855;BME280;57146;48.140;16.304;2023-05-29T02:40:59;99388.59;;;11.62;76.17
69855;BME280;57146;48.140;16.304;2023-05-29T02:43:26;99384.09;;;11.63;76.03
69855;BME280;57146;48.140;16.304;2023-05-29T02:45:54;99380.66;;;11.54;76.44
69855;BME280;57146;48.140;16.304;2023-05-29T02:48:22;99380.06;;;11.57;76.05
69855;BME280;57146;48.140;16.304;2023-05-29T02:50:52;99387.31;;;11.51;76.49
69855;BME280;57146;48.140;16.304;2023-05-29T02:53:19;99385.78;;;11.50;76.47
69855;BME280;57146;48.140;16.304;2023-05-29T02:56:10;99389.47;;;11.49;76.54
69855;BME280;57146;48.140;16.304;2023-05-29T02:58:38;99384.19;;;11.49;76.39
69855;BME280;57146;48.140;16.304;2023-05-29T03:01:05;99385.47;;;11.51;76.21
69855;BME280;57146;48.140;16.304;2023-05-29T03:03:32;99381.88;;;11.47;76.47
69855;BME280;57146;48.140;16.304;2023-05-29T03:06:00;99383.41;;;11.48;76.01
69855;BME280;57146;48.140;16.304;2023-05-29T03:08:27;99379.06;;;11.44;75.90
69855;BME280;57146;48.140;16.304;2023-05-29T03:10:54;99379.06;;;11.44;76.48
69855;BME280;57146;48.140;16.304;2023-05-29T03:13:22;99380.16;;;11.43;76.39
69855;BME280;57146;48.140;16.304;2023-05-29T03:15:55;99379.19;;;11.39;76.07
69855;BME280;57146;48.140;16.304;2023-05-29T03:18:49;99372.19;;;11.34;76.34
69855;BME280;57146;48.140;16.304;2023-05-29T03:21:19;99373.13;;;11.38;76.72
69855;BME280;57146;48.140;16.304;2023-05-29T03:23:47;99370.03;;;11.36;76.84
69855;BME280;57146;48.140;16.304;2023-05-29T03:26:19;99362.06;;;11.27;76.56
69855;BME280;57146;48.140;16.304;2023-05-29T03:28:48;99369.50;;;11.25;76.86
69855;BME280;57146;48.140;16.304;2023-05-29T03:31:15;99377.69;;;11.24;77.04
69855;BME280;57146;48.140;16.304;2023-05-29T03:33:42;99371.47;;;11.20;77.86
69855;BME280;57146;48.140;16.304;2023-05-29T03:36:21;99386.06;;;11.17;77.93
69855;BME280;57146;48.140;16.304;2023-05-29T03:38:48;99386.75;;;11.09;77.76
69855;BME280;57146;48.140;16.304;2023-05-29T03:41:19;99389.28;;;11.14;78.24
69855;BME280;57146;48.140;16.304;2023-05-29T03:43:46;99390.06;;;11.15;78.37
69855;BME280;57146;48.140;16.304;2023-05-29T03:46:14;99400.59;;;11.15;78.48
69855;BME280;57146;48.140;16.304;2023-05-29T03:48:46;99397.19;;;11.14;78.76
69855;BME280;57146;48.140;16.304;2023-05-29T03:51:13;99399.22;;;11.17;79.03
69855;BME280;57146;48.140;16.304;2023-05-29T03:53:43;99395.00;;;11.16;78.93
69855;BME280;57146;48.140;16.304;2023-05-29T03:56:10;99400.00;;;11.18;79.00
69855;BME280;57146;48.140;16.304;2023-05-29T03:58:40;99405.44;;;11.21;78.81
69855;BME280;57146;48.140;16.304;2023-05-29T04:01:08;99402.69;;;11.26;78.97
69855;BME280;57146;48.140;16.304;2023-05-29T04:03:36;99419.34;;;11.36;79.13
69855;BME280;57146;48.140;16.304;2023-05-29T04:06:03;99420.28;;;11.40;79.40
69855;BME280;57146;48.140;16.304;2023-05-29T04:08:30;99417.22;;;11.46;79.12
69855;BME280;57146;48.140;16.304;2023-05-29T04:10:59;99409.66;;;11.54;79.04
69855;BME280;57146;48.140;16.304;2023-05-29T04:13:27;99417.25;;;11.55;78.92
69855;BME280;57146;48.140;16.304;2023-05-29T04:15:54;99407.06;;;11.62;78.37
69855;BME280;57146;48.140;16.304;2023-05-29T04:18:22;99417.66;;;11.71;77.95
69855;BME280;57146;48.140;16.304;2023-05-29T04:20:49;99412.91;;;11.82;77.42
69855;BME280;57146;48.140;16.304;2023-05-29T04:23:16;99412.50;;;11.88;77.33
69855;BME280;57146;48.140;16.304;2023-05-29T04:25:43;99411.75;;;11.96;77.30
69855;BME280;57146;48.140;16.304;2023-05-29T04:28:11;99414.41;;;12.05;77.33
69855;BME280;57146;48.140;16.304;2023-05-29T04:30:39;99425.47;;;12.16;77.08
69855;BME280;57146;48.140;16.304;2023-05-29T04:33:06;99421.00;;;12.25;77.31
69855;BME280;57146;48.140;16.304;2023-05-29T04:35:35;99431.28;;;12.35;77.22
69855;BME280;57146;48.140;16.304;2023-05-29T04:38:06;99431.28;;;12.44;77.11
69855;BME280;57146;48.140;16.304;2023-05-29T04:40:33;99435.81;;;12.52;77.59
69855;BME280;57146;48.140;16.304;2023-05-29T04:43:02;99436.44;;;12.58;77.22
69855;BME280;57146;48.140;16.304;2023-05-29T04:45:41;99442.53;;;12.67;76.93
69855;BME280;57146;48.140;16.304;2023-05-29T04:48:08;99443.63;;;12.75;77.13
69855;BME280;57146;48.140;16.304;2023-05-29T04:50:35;99436.47;;;12.84;76.57
69855;BME280;57146;48.140;16.304;2023-05-29T04:53:05;99439.91;;;12.93;76.95
69855;BME280;57146;48.140;16.304;2023-05-29T04:55:32;99441.00;;;13.01;76.57
69855;BME280;57146;48.140;16.304;2023-05-29T04:57:59;99456.53;;;13.11;75.61
69855;BME280;57146;48.140;16.304;2023-05-29T05:00:27;99443.31;;;13.19;74.40
69855;BME280;57146;48.140;16.304;2023-05-29T05:02:56;99443.16;;;13.33;71.38
69855;BME280;57146;48.140;16.304;2023-05-29T05:05:23;99441.59;;;13.50;68.91
69855;BME280;57146;48.140;16.304;2023-05-29T05:07:56;99448.53;;;13.72;67.09
69855;BME280;57146;48.140;16.304;2023-05-29T05:10:23;99443.38;;;13.84;66.31
69855;BME280;57146;48.140;16.304;2023-05-29T05:12:50;99451.44;;;13.96;66.25
69855;BME280;57146;48.140;16.304;2023-05-29T05:15:21;99452.63;;;14.07;65.02
69855;BME280;57146;48.140;16.304;2023-05-29T05:17:49;99445.44;;;14.17;64.50
69855;BME280;57146;48.140;16.304;2023-05-29T05:20:16;99443.50;;;14.26;63.77
69855;BME280;57146;48.140;16.304;2023-05-29T05:22:48;99449.97;;;14.37;63.33
69855;BME280;57146;48.140;16.304;2023-05-29T05:25:18;99454.31;;;14.50;63.19
69855;BME280;57146;48.140;16.304;2023-05-29T05:27:45;99445.84;;;14.57;63.11
69855;BME280;57146;48.140;16.304;2023-05-29T05:30:13;99452.19;;;14.65;63.52
69855;BME280;57146;48.140;16.304;2023-05-29T05:32:41;99449.50;;;14.73;63.25
69855;BME280;57146;48.140;16.304;2023-05-29T05:35:09;99441.44;;;14.91;62.61
69855;BME280;57146;48.140;16.304;2023-05-29T05:37:36;99445.66;;;15.04;61.20
69855;BME280;57146;48.140;16.304;2023-05-29T05:40:04;99445.75;;;15.16;60.43
69855;BME280;57146;48.140;16.304;2023-05-29T05:42:32;99456.06;;;15.30;59.88
69855;BME280;57146;48.140;16.304;2023-05-29T05:45:04;99455.00;;;15.43;59.06
69855;BME280;57146;48.140;16.304;2023-05-29T05:47:35;99443.97;;;15.53;59.05
69855;BME280;57146;48.140;16.304;2023-05-29T05:50:02;99456.06;;;15.63;58.75
69855;BME280;57146;48.140;16.304;2023-05-29T05:52:36;99450.66;;;15.72;58.74
69855;BME280;57146;48.140;16.304;2023-05-29T05:55:03;99456.44;;;15.86;57.72
69855;BME280;57146;48.140;16.304;2023-05-29T05:57:55;99451.38;;;15.93;57.28
69855;BME280;57146;48.140;16.304;2023-05-29T06:00:23;99454.69;;;16.02;56.13
69855;BME280;57146;48.140;16.304;2023-05-29T06:02:55;99463.34;;;16.12;55.74
69855;BME280;57146;48.140;16.304;2023-05-29T06:05:35;99469.41;;;16.24;56.03
69855;BME280;57146;48.140;16.304;2023-05-29T06:08:03;99468.31;;;16.38;55.94
69855;BME280;57146;48.140;16.304;2023-05-29T06:10:30;99473.50;;;16.46;54.33
69855;BME280;57146;48.140;16.304;2023-05-29T06:12:57;99473.28;;;16.51;54.43
69855;BME280;57146;48.140;16.304;2023-05-29T06:15:31;99470.09;;;16.58;55.14
69855;BME280;57146;48.140;16.304;2023-05-29T06:17:59;99462.44;;;16.57;53.27
69855;BME280;57146;48.140;16.304;2023-05-29T06:20:27;99471.84;;;16.66;54.07
69855;BME280;57146;48.140;16.304;2023-05-29T06:22:55;99467.31;;;16.79;54.12
69855;BME280;57146;48.140;16.304;2023-05-29T06:25:23;99476.69;;;16.89;53.22
69855;BME280;57146;48.140;16.304;2023-05-29T06:27:51;99480.22;;;16.93;52.25
69855;BME280;57146;48.140;16.304;2023-05-29T06:30:19;99484.75;;;17.05;52.51
69855;BME280;57146;48.140;16.304;2023-05-29T06:32:47;99475.50;;;17.14;52.34
69855;BME280;57146;48.140;16.304;2023-05-29T06:35:14;99480.03;;;17.14;52.17
69855;BME280;57146;48.140;16.304;2023-05-29T06:37:42;99477.53;;;17.33;52.13
69855;BME280;57146;48.140;16.304;2023-05-29T06:40:09;99482.22;;;17.52;52.62
69855;BME280;57146;48.140;16.304;2023-05-29T06:42:37;99482.75;;;17.58;51.58
69855;BME280;57146;48.140;16.304;2023-05-29T06:45:12;99489.63;;;17.59;51.54
69855;BME280;57146;48.140;16.304;2023-05-29T06:47:43;99494.19;;;17.74;52.26
69855;BME280;57146;48.140;16.304;2023-05-29T06:50:14;99487.19;;;17.82;51.14
69855;BME280;57146;48.140;16.304;2023-05-29T06:52:41;99483.84;;;18.01;50.85
69855;BME280;57146;48.140;16.304;2023-05-29T06:55:25;99484.44;;;18.10;50.61
69855;BME280;57146;48.140;16.304;2023-05-29T06:57:54;99479.03;;;18.22;51.07
69855;BME280;57146;48.140;16.304;2023-05-29T07:00:25;99491.75;;;18.29;48.70
69855;BME280;57146;48.140;16.304;2023-05-29T07:03:17;99489.50;;;18.47;50.12
69855;BME280;57146;48.140;16.304;2023-05-29T07:05:45;99498.25;;;18.47;47.67
69855;BME280;57146;48.140;16.304;2023-05-29T07:08:14;99495.25;;;18.49;48.04
69855;BME280;57146;48.140;16.304;2023-05-29T07:10:42;99494.84;;;18.47;48.00
69855;BME280;57146;48.140;16.304;2023-05-29T07:13:09;99489.81;;;18.61;48.66
69855;BME280;57146;48.140;16.304;2023-05-29T07:15:37;99488.47;;;18.86;48.75
69855;BME280;57146;48.140;16.304;2023-05-29T07:18:05;99481.53;;;19.01;47.89
69855;BME280;57146;48.140;16.304;2023-05-29T07:20:59;99480.06;;;19.04;45.38
69855;BME280;57146;48.140;16.304;2023-05-29T07:23:29;99478.03;;;19.17;47.51
69855;BME280;57146;48.140;16.304;2023-05-29T07:25:57;99480.34;;;19.18;46.47
69855;BME280;57146;48.140;16.304;2023-05-29T07:28:27;99480.91;;;19.27;47.57
69855;BME280;57146;48.140;16.304;2023-05-29T07:30:56;99485.41;;;19.43;46.35
69855;BME280;57146;48.140;16.304;2023-05-29T07:33:23;99498.75;;;19.43;46.66
69855;BME280;57146;48.140;16.304;2023-05-29T07:36:17;99501.41;;;19.43;45.92
69855;BME280;57146;48.140;16.304;2023-05-29T07:38:47;99513.06;;;19.34;46.53
69855;BME280;57146;48.140;16.304;2023-05-29T07:41:16;99511.03;;;19.47;47.21
69855;BME280;57146;48.140;16.304;2023-05-29T07:43:50;99506.28;;;19.60;48.24
69855;BME280;57146;48.140;16.304;2023-05-29T07:46:19;99500.81;;;19.53;45.56
69855;BME280;57146;48.140;16.304;2023-05-29T07:48:49;99511.56;;;19.56;45.64
69855;BME280;57146;48.140;16.304;2023-05-29T07:51:17;99512.94;;;19.47;46.53
69855;BME280;57146;48.140;16.304;2023-05-29T07:53:47;99510.81;;;19.36;46.90
69855;BME280;57146;48.140;16.304;2023-05-29T07:56:15;99516.56;;;19.38;47.05
69855;BME280;57146;48.140;16.304;2023-05-29T07:58:43;99511.22;;;19.38;47.34
69855;BME280;57146;48.140;16.304;2023-05-29T08:01:14;99512.78;;;19.40;46.20
69855;BME280;57146;48.140;16.304;2023-05-29T08:03:41;99506.44;;;19.48;46.67
69855;BME280;57146;48.140;16.304;2023-05-29T08:06:12;99505.19;;;19.61;46.32
69855;BME280;57146;48.140;16.304;2023-05-29T08:08:40;99499.34;;;19.75;45.65
69855;BME280;57146;48.140;16.304;2023-05-29T08:11:07;99497.75;;;19.93;47.51
69855;BME280;57146;48.140;16.304;2023-05-29T08:13:35;99505.63;;;20.09;46.46
69855;BME280;57146;48.140;16.304;2023-05-29T08:16:03;99499.22;;;19.91;45.12
69855;BME280;57146;48.140;16.304;2023-05-29T08:18:31;99505.50;;;20.02;45.02
69855;BME280;57146;48.140;16.304;2023-05-29T08:20:58;99493.72;;;20.03;44.61
69855;BME280;57146;48.140;16.304;2023-05-29T08:23:26;99504.88;;;20.08;44.98
69855;BME280;57146;48.140;16.304;2023-05-29T08:25:53;99504.56;;;20.14;44.82
69855;BME280;57146;48.140;16.304;2023-05-29T08:28:21;99510.16;;;20.28;45.08
69855;BME280;57146;48.140;16.304;2023-05-29T08:30:48;99505.03;;;20.19;45.02
69855;BME280;57146;48.140;16.304;2023-05-29T08:33:15;99508.84;;;20.18;44.64
69855;BME280;57146;48.140;16.304;2023-05-29T08:35:43;99516.25;;;20.05;45.08
69855;BME280;57146;48.140;16.304;2023-05-29T08:38:10;99511.41;;;20.11;44.98
69855;BME280;57146;48.140;16.304;2023-05-29T08:40:37;99510.09;;;20.01;44.87
69855;BME280;57146;48.140;16.304;2023-05-29T08:43:22;99505.94;;;20.04;44.22
69855;BME280;57146;48.140;16.304;2023-05-29T08:45:54;99509.22;;;19.94;45.50
69855;BME280;57146;48.140;16.304;2023-05-29T08:48:29;99508.19;;;20.02;45.69
69855;BME280;57146;48.140;16.304;2023-05-29T08:51:02;99510.50;;;20.26;47.72
69855;BME280;57146;48.140;16.304;2023-05-29T08:53:29;99511.53;;;20.45;45.82
69855;BME280;57146;48.140;16.304;2023-05-29T08:55:57;99509.22;;;20.43;45.62
69855;BME280;57146;48.140;16.304;2023-05-29T08:58:24;99511.19;;;20.46;46.05
69855;BME280;57146;48.140;16.304;2023-05-29T09:00:56;99515.47;;;20.51;46.18
69855;BME280;57146;48.140;16.304;2023-05-29T09:03:24;99513.84;;;20.46;45.95
69855;BME280;57146;48.140;16.304;2023-05-29T09:05:57;99503.28;;;20.53;46.99
69855;BME280;57146;48.140;16.304;2023-05-29T09:08:25;99504.88;;;20.58;46.07
69855;BME280;57146;48.140;16.304;2023-05-29T09:10:52;99506.31;;;20.52;43.56
69855;BME280;57146;48.140;16.304;2023-05-29T09:13:20;99501.25;;;20.47;43.14
69855;BME280;57146;48.140;16.304;2023-05-29T09:16:11;99506.50;;;20.66;43.68
69855;BME280;57146;48.140;16.304;2023-05-29T09:18:39;99513.28;;;20.56;43.28
69855;BME280;57146;48.140;16.304;2023-05-29T09:21:07;99499.94;;;20.60;43.68
69855;BME280;57146;48.140;16.304;2023-05-29T09:23:37;99509.59;;;20.68;43.51
69855;BME280;57146;48.140;16.304;2023-05-29T09:26:04;99505.16;;;20.79;42.79
69855;BME280;57146;48.140;16.304;2023-05-29T09:28:56;99508.31;;;20.85;41.11
69855;BME280;57146;48.140;16.304;2023-05-29T09:31:50;99499.19;;;20.90;42.84
69855;BME280;57146;48.140;16.304;2023-05-29T09:34:18;99507.03;;;21.05;42.13
69855;BME280;57146;48.140;16.304;2023-05-29T09:36:47;99510.25;;;21.18;41.60
69855;BME280;57146;48.140;16.304;2023-05-29T09:39:14;99513.41;;;21.27;40.64
69855;BME280;57146;48.140;16.304;2023-05-29T09:41:47;99513.81;;;21.29;40.40
69855;BME280;57146;48.140;16.304;2023-05-29T09:44:15;99511.16;;;21.33;40.33
69855;BME280;57146;48.140;16.304;2023-05-29T09:46:42;99507.47;;;21.41;39.38
69855;BME280;57146;48.140;16.304;2023-05-29T09:49:11;99519.69;;;21.39;39.01
69855;BME280;57146;48.140;16.304;2023-05-29T09:52:04;99510.84;;;21.35;38.79
69855;BME280;57146;48.140;16.304;2023-05-29T09:54:31;99508.63;;;21.44;40.39
69855;BME280;57146;48.140;16.304;2023-05-29T09:57:05;99512.63;;;21.57;39.56
69855;BME280;57146;48.140;16.304;2023-05-29T09:59:34;99512.19;;;21.55;39.82
69855;BME280;57146;48.140;16.304;2023-05-29T10:02:03;99505.81;;;21.33;37.68
69855;BME280;57146;48.140;16.304;2023-05-29T10:04:31;99504.25;;;21.28;39.25
69855;BME280;57146;48.140;16.304;2023-05-29T10:07:00;99503.22;;;21.37;39.63
69855;BME280;57146;48.140;16.304;2023-05-29T10:09:33;99498.59;;;21.34;39.94
69855;BME280;57146;48.140;16.304;2023-05-29T10:12:26;99501.50;;;21.21;39.77
69855;BME280;57146;48.140;16.304;2023-05-29T10:14:59;99499.91;;;21.17;40.64
69855;BME280;57146;48.140;16.304;2023-05-29T10:18:03;99499.03;;;21.09;41.19
69855;BME280;57146;48.140;16.304;2023-05-29T10:20:36;99499.31;;;21.00;41.00
69855;BME280;57146;48.140;16.304;2023-05-29T10:23:07;99494.00;;;21.04;42.45
69855;BME280;57146;48.140;16.304;2023-05-29T10:25:36;99492.81;;;21.01;42.82
69855;BME280;57146;48.140;16.304;2023-05-29T10:28:04;99488.75;;;21.11;42.17
69855;BME280;57146;48.140;16.304;2023-05-29T10:30:41;99483.41;;;21.11;41.69
69855;BME280;57146;48.140;16.304;2023-05-29T10:35:52;99490.38;;;21.19;41.42
69855;BME280;57146;48.140;16.304;2023-05-29T10:38:21;99481.66;;;21.26;42.09
69855;BME280;57146;48.140;16.304;2023-05-29T10:40:48;99482.50;;;21.34;40.37
69855;BME280;57146;48.140;16.304;2023-05-29T10:43:34;99470.72;;;21.38;40.92
69855;BME280;57146;48.140;16.304;2023-05-29T10:46:03;99468.97;;;21.53;40.99
69855;BME280;57146;48.140;16.304;2023-05-29T10:48:37;99461.81;;;21.68;41.25
69855;BME280;57146;48.140;16.304;2023-05-29T10:51:06;99462.25;;;21.77;41.39
69855;BME280;57146;48.140;16.304;2023-05-29T10:53:34;99463.91;;;21.89;40.09
69855;BME280;57146;48.140;16.304;2023-05-29T10:56:01;99464.28;;;21.91;39.85
69855;BME280;57146;48.140;16.304;2023-05-29T10:58:30;99463.59;;;21.97;38.94
69855;BME280;57146;48.140;16.304;2023-05-29T11:00:57;99468.97;;;22.01;38.60
69855;BME280;57146;48.140;16.304;2023-05-29T11:03:29;99463.63;;;22.05;39.46
69855;BME280;57146;48.140;16.304;2023-05-29T11:06:21;99461.00;;;22.08;39.31
69855;BME280;57146;48.140;16.304;2023-05-29T11:08:56;99462.94;;;22.11;38.60
69855;BME280;57146;48.140;16.304;2023-05-29T11:14:46;99458.31;;;22.08;38.05
69855;BME280;57146;48.140;16.304;2023-05-29T11:17:33;99462.25;;;22.18;37.11
69855;BME280;57146;48.140;16.304;2023-05-29T11:20:20;99458.06;;;22.20;36.83
69855;BME280;57146;48.140;16.304;2023-05-29T11:23:05;99458.09;;;22.24;34.98
69855;BME280;57146;48.140;16.304;2023-05-29T11:25:34;99459.19;;;22.19;34.99
69855;BME280;57146;48.140;16.304;2023-05-29T11:28:02;99452.63;;;22.13;34.55
69855;BME280;57146;48.140;16.304;2023-05-29T11:30:31;99454.19;;;22.14;35.27
69855;BME280;57146;48.140;16.304;2023-05-29T11:33:01;99450.03;;;22.24;35.59
69855;BME280;57146;48.140;16.304;2023-05-29T11:35:30;99453.56;;;22.39;35.88
69855;BME280;57146;48.140;16.304;2023-05-29T11:37:57;99453.94;;;22.41;34.79
69855;BME280;57146;48.140;16.304;2023-05-29T11:40:24;99452.84;;;22.45;35.42
69855;BME280;57146;48.140;16.304;2023-05-29T11:42:51;99457.88;;;22.54;35.15
69855;BME280;57146;48.140;16.304;2023-05-29T11:45:20;99458.28;;;22.56;34.54
69855;BME280;57146;48.140;16.304;2023-05-29T11:50:23;99452.91;;;22.60;35.71
69855;BME280;57146;48.140;16.304;2023-05-29T11:52:50;99453.28;;;22.58;34.55
69855;BME280;57146;48.140;16.304;2023-05-29T11:55:20;99444.16;;;22.66;35.70
69855;BME280;57146;48.140;16.304;2023-05-29T11:57:57;99443.00;;;22.71;34.06
69855;BME280;57146;48.140;16.304;2023-05-29T12:00:29;99443.41;;;22.77;35.15
69855;BME280;57146;48.140;16.304;2023-05-29T12:02:58;99441.53;;;22.84;34.29
69855;BME280;57146;48.140;16.304;2023-05-29T12:05:49;99436.16;;;22.84;34.09
69855;BME280;57146;48.140;16.304;2023-05-29T12:08:16;99440.38;;;22.85;35.50
69855;BME280;57146;48.140;16.304;2023-05-29T12:10:51;99436.13;;;22.74;33.52
69855;BME280;57146;48.140;16.304;2023-05-29T12:13:21;99441.06;;;22.68;33.67
69855;BME280;57146;48.140;16.304;2023-05-29T12:15:52;99429.97;;;22.73;33.86
69855;BME280;57146;48.140;16.304;2023-05-29T12:18:21;99424.25;;;22.82;34.04
69855;BME280;57146;48.140;16.304;2023-05-29T12:20:57;99431.63;;;22.99;34.57
69855;BME280;57146;48.140;16.304;2023-05-29T12:23:24;99417.06;;;23.04;33.82
69855;BME280;57146;48.140;16.304;2023-05-29T12:25:52;99422.84;;;23.06;34.62
69855;BME280;57146;48.140;16.304;2023-05-29T12:28:25;99419.75;;;23.07;33.09
69855;BME280;57146;48.140;16.304;2023-05-29T12:31:27;99418.63;;;23.15;32.59
69855;BME280;57146;48.140;16.304;2023-05-29T12:34:10;99416.72;;;23.05;32.91
69855;BME280;57146;48.140;16.304;2023-05-29T12:36:41;99409.41;;;23.06;33.25
69855;BME280;57146;48.140;16.304;2023-05-29T12:39:09;99417.88;;;23.18;33.44
69855;BME280;57146;48.140;16.304;2023-05-29T12:41:36;99421.72;;;23.17;32.64
69855;BME280;57146;48.140;16.304;2023-05-29T12:44:05;99415.56;;;23.10;31.64
69855;BME280;57146;48.140;16.304;2023-05-29T12:46:39;99416.72;;;23.05;31.61
69855;BME280;57146;48.140;16.304;2023-05-29T12:49:16;99412.09;;;23.06;32.13
69855;BME280;57146;48.140;16.304;2023-05-29T12:51:45;99416.72;;;23.12;30.85
69855;BME280;57146;48.140;16.304;2023-05-29T12:54:16;99410.56;;;23.08;31.13
69855;BME280;57146;48.140;16.304;2023-05-29T12:56:47;99412.13;;;23.13;31.24
69855;BME280;57146;48.140;16.304;2023-05-29T12:59:14;99411.38;;;23.16;30.84
69855;BME280;57146;48.140;16.304;2023-05-29T13:01:43;99404.44;;;23.15;30.38
69855;BME280;57146;48.140;16.304;2023-05-29T13:04:10;99402.50;;;23.05;30.68
69855;BME280;57146;48.140;16.304;2023-05-29T13:06:37;99398.31;;;23.22;31.20
69855;BME280;57146;48.140;16.304;2023-05-29T13:09:04;99395.28;;;23.27;30.25
69855;BME280;57146;48.140;16.304;2023-05-29T13:11:55;99400.25;;;23.32;30.61
69855;BME280;57146;48.140;16.304;2023-05-29T13:14:22;99398.31;;;23.25;30.94
69855;BME280;57146;48.140;16.304;2023-05-29T13:16:49;99391.03;;;23.36;31.32
69855;BME280;57146;48.140;16.304;2023-05-29T13:19:17;99393.38;;;23.41;31.86
69855;BME280;57146;48.140;16.304;2023-05-29T13:21:44;99397.97;;;23.48;31.16
69855;BME280;57146;48.140;16.304;2023-05-29T13:24:12;99391.03;;;23.43;30.35
69855;BME280;57146;48.140;16.304;2023-05-29T13:26:40;99399.09;;;23.47;30.22
69855;BME280;57146;48.140;16.304;2023-05-29T13:29:08;99394.50;;;23.44;29.87
69855;BME280;57146;48.140;16.304;2023-05-29T13:31:35;99397.19;;;23.48;30.71